sensor_id;sensor_type;location;lat;lon;timestamp;pressure;altitude;pressure_sealevel;temperature;humidity
70902;BME280;58548;47.210;8.618;2023-01-29T00:01:50;94756.88;;;8.37;35.50
70902;BME280;58548;47.210;8.618;2023-01-29T00:04:16;94748.88;;;8.22;35.39
70902;BME280;58548;47.210;8.618;2023-01-29T00:06:42;94636.81;;;7.48;35.93
70902;BME280;58548;47.210;8.618;2023-01-29T00:09:11;94767.09;;;8.30;35.97
70902;BME280;58548;47.210;8.618;2023-01-29T00:11:38;94693.34;;;7.89;35.62
70902;BME280;58548;47.210;8.618;2023-01-29T00:14:07;94726.88;;;8.08;35.71
70902;BME280;58548;47.210;8.618;2023-01-29T00:16:35;94629.97;;;7.47;36.09
70902;BME280;58548;47.210;8.618;2023-01-29T00:19:03;94639.25;;;7.49;35.63
70902;BME280;58548;47.210;8.618;2023-01-29T00:21:30;94635.56;;;7.60;35.56
70902;BME280;58548;47.210;8.618;2023-01-29T00:23:59;94616.69;;;7.50;36.12
70902;BME280;58548;47.210;8.618;2023-01-29T00:26:26;94766.16;;;8.40;35.93
70902;BME280;58548;47.210;8.618;2023-01-29T00:28:55;94771.72;;;8.45;35.76
70902;BME280;58548;47.210;8.618;2023-01-29T00:31:23;94773.56;;;8.53;35.48
70902;BME280;58548;47.210;8.618;2023-01-29T00:33:52;94763.63;;;8.56;34.99
70902;BME280;58548;47.210;8.618;2023-01-29T00:36:19;94721.72;;;8.25;35.44
70902;BME280;58548;47.210;8.618;2023-01-29T00:38:46;94768.13;;;8.38;35.73
70902;BME280;58548;47.210;8.618;2023-01-29T00:41:20;94769.44;;;8.42;35.59
70902;BME280;58548;47.210;8.618;2023-01-29T00:44:05;94764.56;;;8.47;35.55
70902;BME280;58548;47.210;8.618;2023-01-29T00:46:52;94714.88;;;8.15;35.40
70902;BME280;58548;47.210;8.618;2023-01-29T00:49:19;94782.94;;;8.45;34.98
70902;BME280;58548;47.210;8.618;2023-01-29T00:51:49;94674.75;;;7.75;35.59
70902;BME280;58548;47.210;8.618;2023-01-29T00:54:34;94765.47;;;8.29;35.51
70902;BME280;58548;47.210;8.618;2023-01-29T00:57:02;94764.19;;;8.25;35.83
70902;BME280;58548;47.210;8.618;2023-01-29T00:59:28;94782.91;;;8.29;35.66
70902;BME280;58548;47.210;8.618;2023-01-29T01:01:57;94778.19;;;8.33;36.24
70902;BME280;58548;47.210;8.618;2023-01-29T01:04:41;94771.13;;;8.17;35.63
70902;BME280;58548;47.210;8.618;2023-01-29T01:07:07;94770.94;;;8.10;35.75
70902;BME280;58548;47.210;8.618;2023-01-29T01:09:36;94639.50;;;7.30;36.18
70902;BME280;58548;47.210;8.618;2023-01-29T01:12:21;94773.53;;;8.02;35.93
70902;BME280;58548;47.210;8.618;2023-01-29T01:14:47;94655.41;;;7.27;35.92
70902;BME280;58548;47.210;8.618;2023-01-29T01:17:16;94753.34;;;7.95;35.49
70902;BME280;58548;47.210;8.618;2023-01-29T01:19:44;94766.41;;;8.12;36.01
70902;BME280;58548;47.210;8.618;2023-01-29T01:22:12;94721.06;;;7.72;36.15
70902;BME280;58548;47.210;8.618;2023-01-29T01:24:41;94643.13;;;7.11;36.03
70902;BME280;58548;47.210;8.618;2023-01-29T01:27:09;94784.25;;;7.98;35.84
70902;BME280;58548;47.210;8.618;2023-01-29T01:29:35;94798.25;;;8.06;35.96
70902;BME280;58548;47.210;8.618;2023-01-29T01:32:01;94812.31;;;8.21;36.00
70902;BME280;58548;47.210;8.618;2023-01-29T01:34:27;94777.78;;;8.03;35.60
70902;BME280;58548;47.210;8.618;2023-01-29T01:36:56;94674.47;;;7.44;35.95
70902;BME280;58548;47.210;8.618;2023-01-29T01:39:23;94770.75;;;8.03;35.67
70902;BME280;58548;47.210;8.618;2023-01-29T01:41:54;94813.53;;;8.09;36.13
70902;BME280;58548;47.210;8.618;2023-01-29T01:47:27;94828.47;;;7.98;35.98
70902;BME280;58548;47.210;8.618;2023-01-29T01:49:59;94813.09;;;7.87;36.08
70902;BME280;58548;47.210;8.618;2023-01-29T01:52:30;94683.06;;;7.09;36.06
70902;BME280;58548;47.210;8.618;2023-01-29T01:54:59;94695.84;;;7.03;36.63
70902;BME280;58548;47.210;8.618;2023-01-29T01:57:28;94826.78;;;7.89;36.16
70902;BME280;58548;47.210;8.618;2023-01-29T02:00:10;94587.63;;;6.51;36.09
70902;BME280;58548;47.210;8.618;2023-01-29T02:02:44;94820.66;;;7.98;36.23
70902;BME280;58548;47.210;8.618;2023-01-29T02:05:35;94789.91;;;7.59;36.49
70902;BME280;58548;47.210;8.618;2023-01-29T02:08:51;94830.66;;;7.85;36.71
70902;BME280;58548;47.210;8.618;2023-01-29T02:11:37;94798.31;;;7.53;36.57
70902;BME280;58548;47.210;8.618;2023-01-29T02:14:03;94840.56;;;7.81;36.24
70902;BME280;58548;47.210;8.618;2023-01-29T02:16:35;94832.28;;;7.86;36.14
70902;BME280;58548;47.210;8.618;2023-01-29T02:19:06;94705.09;;;7.05;36.68
70902;BME280;58548;47.210;8.618;2023-01-29T02:24:49;94718.19;;;6.96;36.66
70902;BME280;58548;47.210;8.618;2023-01-29T02:27:45;94844.00;;;7.90;36.14
70902;BME280;58548;47.210;8.618;2023-01-29T02:33:00;94826.88;;;7.79;36.88
70902;BME280;58548;47.210;8.618;2023-01-29T02:38:44;94831.81;;;7.64;36.95
70902;BME280;58548;47.210;8.618;2023-01-29T02:41:25;94831.88;;;7.73;36.31
70902;BME280;58548;47.210;8.618;2023-01-29T02:46:43;94839.69;;;7.73;36.58
70902;BME280;58548;47.210;8.618;2023-01-29T02:56:59;94836.06;;;7.92;36.13
70902;BME280;58548;47.210;8.618;2023-01-29T02:59:47;94830.34;;;7.88;35.99
70902;BME280;58548;47.210;8.618;2023-01-29T03:02:27;94796.81;;;7.77;36.33
70902;BME280;58548;47.210;8.618;2023-01-29T03:05:02;94805.91;;;7.73;36.03
70902;BME280;58548;47.210;8.618;2023-01-29T03:07:37;94798.25;;;7.71;35.96
70902;BME280;58548;47.210;8.618;2023-01-29T03:12:53;94701.75;;;7.39;35.71
70902;BME280;58548;47.210;8.618;2023-01-29T03:15:33;94813.81;;;7.97;36.00
70902;BME280;58548;47.210;8.618;2023-01-29T03:18:17;94806.81;;;7.98;35.48
70902;BME280;58548;47.210;8.618;2023-01-29T03:20:49;94712.66;;;7.17;35.76
70902;BME280;58548;47.210;8.618;2023-01-29T03:23:29;94813.41;;;7.84;36.28
70902;BME280;58548;47.210;8.618;2023-01-29T03:26:20;94695.25;;;7.09;36.08
70902;BME280;58548;47.210;8.618;2023-01-29T03:29:07;94806.63;;;7.83;36.23
70902;BME280;58548;47.210;8.618;2023-01-29T03:31:55;94724.19;;;7.41;36.10
70902;BME280;58548;47.210;8.618;2023-01-29T03:34:45;94804.34;;;7.88;36.21
70902;BME280;58548;47.210;8.618;2023-01-29T03:37:30;94651.84;;;7.01;36.13
70902;BME280;58548;47.210;8.618;2023-01-29T03:40:05;94777.66;;;7.78;35.93
70902;BME280;58548;47.210;8.618;2023-01-29T03:43:07;94674.97;;;7.13;36.41
70902;BME280;58548;47.210;8.618;2023-01-29T03:46:09;94813.53;;;8.09;36.19
70902;BME280;58548;47.210;8.618;2023-01-29T03:51:35;94731.78;;;7.68;35.99
70902;BME280;58548;47.210;8.618;2023-01-29T03:59:40;94798.75;;;8.09;35.33
70902;BME280;58548;47.210;8.618;2023-01-29T04:02:21;94650.94;;;7.11;35.19
70902;BME280;58548;47.210;8.618;2023-01-29T04:04:58;94790.41;;;7.97;35.71
70902;BME280;58548;47.210;8.618;2023-01-29T04:07:30;94646.88;;;7.08;35.06
70902;BME280;58548;47.210;8.618;2023-01-29T04:10:09;94680.25;;;7.29;35.62
70902;BME280;58548;47.210;8.618;2023-01-29T04:12:50;94673.22;;;7.21;35.58
70902;BME280;58548;47.210;8.618;2023-01-29T04:15:24;94775.28;;;7.93;35.91
70902;BME280;58548;47.210;8.618;2023-01-29T04:17:54;94799.25;;;8.05;34.87
70902;BME280;58548;47.210;8.618;2023-01-29T04:20:21;94768.56;;;7.82;35.82
70902;BME280;58548;47.210;8.618;2023-01-29T04:22:50;94789.75;;;7.95;35.68
70902;BME280;58548;47.210;8.618;2023-01-29T04:25:26;94792.06;;;7.98;35.75
70902;BME280;58548;47.210;8.618;2023-01-29T04:30:48;94795.16;;;8.02;35.45
70902;BME280;58548;47.210;8.618;2023-01-29T04:44:35;94680.72;;;7.59;35.25
70902;BME280;58548;47.210;8.618;2023-01-29T04:50:11;94777.16;;;8.17;35.53
70902;BME280;58548;47.210;8.618;2023-01-29T04:55:31;94787.75;;;8.24;35.36
70902;BME280;58548;47.210;8.618;2023-01-29T04:58:09;94769.66;;;8.14;35.30
70902;BME280;58548;47.210;8.618;2023-01-29T05:00:46;94789.88;;;8.28;35.25
70902;BME280;58548;47.210;8.618;2023-01-29T05:03:15;94753.03;;;8.07;35.12
70902;BME280;58548;47.210;8.618;2023-01-29T05:05:45;94633.13;;;7.24;34.98
70902;BME280;58548;47.210;8.618;2023-01-29T05:08:20;94698.94;;;7.67;35.17
70902;BME280;58548;47.210;8.618;2023-01-29T05:10:50;94628.72;;;7.16;35.36
70902;BME280;58548;47.210;8.618;2023-01-29T05:13:22;94806.13;;;8.22;35.44
70902;BME280;58548;47.210;8.618;2023-01-29T05:16:11;94800.28;;;8.20;35.38
70902;BME280;58548;47.210;8.618;2023-01-29T05:18:39;94805.47;;;8.20;35.30
70902;BME280;58548;47.210;8.618;2023-01-29T05:21:08;94703.16;;;7.60;35.04
70902;BME280;58548;47.210;8.618;2023-01-29T05:23:39;94800.63;;;8.25;35.23
70902;BME280;58548;47.210;8.618;2023-01-29T05:26:21;94673.97;;;7.40;35.08
70902;BME280;58548;47.210;8.618;2023-01-29T05:29:05;94770.88;;;7.93;35.08
70902;BME280;58548;47.210;8.618;2023-01-29T05:31:33;94815.56;;;8.23;35.18
70902;BME280;58548;47.210;8.618;2023-01-29T05:33:59;94687.56;;;7.34;34.81
70902;BME280;58548;47.210;8.618;2023-01-29T05:36:25;94778.69;;;7.93;35.06
70902;BME280;58548;47.210;8.618;2023-01-29T05:38:51;94820.56;;;8.17;34.61
70902;BME280;58548;47.210;8.618;2023-01-29T05:41:17;94822.06;;;8.19;35.15
70902;BME280;58548;47.210;8.618;2023-01-29T05:43:43;94826.94;;;8.22;35.36
70902;BME280;58548;47.210;8.618;2023-01-29T05:46:09;94703.38;;;7.41;34.95
70902;BME280;58548;47.210;8.618;2023-01-29T05:48:35;94704.34;;;7.39;35.33
70902;BME280;58548;47.210;8.618;2023-01-29T05:51:03;94832.94;;;8.23;35.20
70902;BME280;58548;47.210;8.618;2023-01-29T05:53:30;94741.19;;;7.61;35.49
70902;BME280;58548;47.210;8.618;2023-01-29T05:56:03;94819.06;;;8.06;34.88
70902;BME280;58548;47.210;8.618;2023-01-29T05:58:32;94860.41;;;8.17;35.01
70902;BME280;58548;47.210;8.618;2023-01-29T06:01:10;94853.41;;;8.18;35.40
70902;BME280;58548;47.210;8.618;2023-01-29T06:03:42;94763.75;;;7.61;35.70
70902;BME280;58548;47.210;8.618;2023-01-29T06:06:08;94824.59;;;8.03;35.16
70902;BME280;58548;47.210;8.618;2023-01-29T06:08:34;94725.59;;;7.35;35.09
70902;BME280;58548;47.210;8.618;2023-01-29T06:11:03;94869.84;;;8.18;35.06
70902;BME280;58548;47.210;8.618;2023-01-29T06:13:29;94873.97;;;8.29;34.81
70902;BME280;58548;47.210;8.618;2023-01-29T06:15:57;94868.59;;;8.22;34.83
70902;BME280;58548;47.210;8.618;2023-01-29T06:18:23;94813.78;;;7.89;34.56
70902;BME280;58548;47.210;8.618;2023-01-29T06:20:50;94873.44;;;8.17;34.72
70902;BME280;58548;47.210;8.618;2023-01-29T06:23:18;94883.97;;;8.15;34.78
70902;BME280;58548;47.210;8.618;2023-01-29T06:25:44;94843.31;;;7.80;35.09
70902;BME280;58548;47.210;8.618;2023-01-29T06:28:10;94854.13;;;7.93;34.94
70902;BME280;58548;47.210;8.618;2023-01-29T06:30:38;94887.34;;;8.08;34.71
70902;BME280;58548;47.210;8.618;2023-01-29T06:33:04;94888.69;;;8.12;34.77
70902;BME280;58548;47.210;8.618;2023-01-29T06:35:32;94897.56;;;8.01;34.91
70902;BME280;58548;47.210;8.618;2023-01-29T06:37:58;94747.25;;;6.99;35.00
70902;BME280;58548;47.210;8.618;2023-01-29T06:40:24;94904.19;;;7.95;35.09
70902;BME280;58548;47.210;8.618;2023-01-29T06:42:50;94867.25;;;7.65;34.71
70902;BME280;58548;47.210;8.618;2023-01-29T06:45:16;94789.56;;;7.09;35.15
70902;BME280;58548;47.210;8.618;2023-01-29T06:47:45;94887.75;;;7.68;35.20
70902;BME280;58548;47.210;8.618;2023-01-29T06:50:13;94823.06;;;7.21;35.17
70902;BME280;58548;47.210;8.618;2023-01-29T06:52:39;94905.25;;;7.58;35.08
70902;BME280;58548;47.210;8.618;2023-01-29T06:55:05;94910.44;;;7.58;35.43
70902;BME280;58548;47.210;8.618;2023-01-29T06:57:33;94910.66;;;7.47;35.68
70902;BME280;58548;47.210;8.618;2023-01-29T06:59:59;94823.75;;;6.69;35.39
70902;BME280;58548;47.210;8.618;2023-01-29T07:02:25;94796.44;;;6.46;35.81
70902;BME280;58548;47.210;8.618;2023-01-29T07:04:51;94909.03;;;7.09;36.06
70902;BME280;58548;47.210;8.618;2023-01-29T07:07:17;94885.22;;;6.96;36.43
70902;BME280;58548;47.210;8.618;2023-01-29T07:09:45;94876.75;;;6.94;36.55
70902;BME280;58548;47.210;8.618;2023-01-29T07:12:13;94766.69;;;6.23;36.37
70902;BME280;58548;47.210;8.618;2023-01-29T07:14:39;94762.84;;;6.27;36.31
70902;BME280;58548;47.210;8.618;2023-01-29T07:17:05;94755.50;;;6.22;36.68
70902;BME280;58548;47.210;8.618;2023-01-29T07:19:31;94905.97;;;7.14;36.70
70902;BME280;58548;47.210;8.618;2023-01-29T07:21:59;94779.97;;;6.38;36.38
70902;BME280;58548;47.210;8.618;2023-01-29T07:24:27;94903.94;;;7.18;36.51
70902;BME280;58548;47.210;8.618;2023-01-29T07:26:53;94857.66;;;7.03;36.48
70902;BME280;58548;47.210;8.618;2023-01-29T07:29:19;94738.25;;;6.31;36.02
70902;BME280;58548;47.210;8.618;2023-01-29T07:31:45;94741.53;;;6.33;36.56
70902;BME280;58548;47.210;8.618;2023-01-29T07:34:11;94743.09;;;6.44;35.87
70902;BME280;58548;47.210;8.618;2023-01-29T07:36:41;94737.44;;;6.48;36.26
70902;BME280;58548;47.210;8.618;2023-01-29T07:39:09;94756.81;;;6.72;36.30
70902;BME280;58548;47.210;8.618;2023-01-29T07:41:35;94875.91;;;7.48;36.04
70902;BME280;58548;47.210;8.618;2023-01-29T07:44:01;94848.38;;;7.37;36.17
70902;BME280;58548;47.210;8.618;2023-01-29T07:46:27;94854.81;;;7.51;35.83
70902;BME280;58548;47.210;8.618;2023-01-29T07:48:57;94863.09;;;7.73;36.07
70902;BME280;58548;47.210;8.618;2023-01-29T07:51:26;94766.25;;;7.18;35.91
70902;BME280;58548;47.210;8.618;2023-01-29T07:53:52;94716.31;;;7.06;35.28
70902;BME280;58548;47.210;8.618;2023-01-29T07:56:23;94809.53;;;7.88;35.67
70902;BME280;58548;47.210;8.618;2023-01-29T07:58:51;94878.75;;;8.77;35.69
70902;BME280;58548;47.210;8.618;2023-01-29T08:01:18;94890.72;;;9.62;35.11
70902;BME280;58548;47.210;8.618;2023-01-29T08:03:44;94721.72;;;9.57;33.90
70902;BME280;58548;47.210;8.618;2023-01-29T08:06:11;94864.84;;;11.51;31.82
70902;BME280;58548;47.210;8.618;2023-01-29T08:08:41;94713.16;;;11.66;30.03
70902;BME280;58548;47.210;8.618;2023-01-29T08:11:12;94718.50;;;12.61;28.76
70902;BME280;58548;47.210;8.618;2023-01-29T08:13:38;94875.00;;;14.48;27.39
70902;BME280;58548;47.210;8.618;2023-01-29T08:16:04;94856.03;;;15.08;24.67
70902;BME280;58548;47.210;8.618;2023-01-29T08:18:30;94876.19;;;15.83;24.58
70902;BME280;58548;47.210;8.618;2023-01-29T08:21:02;94764.38;;;15.72;23.92
70902;BME280;58548;47.210;8.618;2023-01-29T08:23:30;94811.59;;;16.66;22.93
70902;BME280;58548;47.210;8.618;2023-01-29T08:25:56;94729.34;;;16.83;22.84
70902;BME280;58548;47.210;8.618;2023-01-29T08:28:24;94864.53;;;18.32;21.30
70902;BME280;58548;47.210;8.618;2023-01-29T08:30:53;94868.66;;;18.83;20.36
70902;BME280;58548;47.210;8.618;2023-01-29T08:33:20;94867.06;;;19.32;20.26
70902;BME280;58548;47.210;8.618;2023-01-29T08:35:50;94767.66;;;19.17;20.47
70902;BME280;58548;47.210;8.618;2023-01-29T08:38:16;94844.53;;;20.19;19.34
70902;BME280;58548;47.210;8.618;2023-01-29T08:40:44;94871.38;;;20.58;18.39
70902;BME280;58548;47.210;8.618;2023-01-29T08:43:14;94776.72;;;20.23;18.47
70902;BME280;58548;47.210;8.618;2023-01-29T08:45:43;94856.09;;;21.01;17.13
70902;BME280;58548;47.210;8.618;2023-01-29T08:48:13;94778.31;;;20.89;17.13
70902;BME280;58548;47.210;8.618;2023-01-29T08:50:39;94848.81;;;21.54;16.91
70902;BME280;58548;47.210;8.618;2023-01-29T08:53:07;94771.63;;;21.15;16.31
70902;BME280;58548;47.210;8.618;2023-01-29T08:55:38;94876.88;;;21.96;15.93
70902;BME280;58548;47.210;8.618;2023-01-29T08:58:10;94772.44;;;21.33;15.55
70902;BME280;58548;47.210;8.618;2023-01-29T09:00:37;94844.81;;;21.86;15.64
70902;BME280;58548;47.210;8.618;2023-01-29T09:03:03;94871.75;;;22.24;15.06
70902;BME280;58548;47.210;8.618;2023-01-29T09:05:33;94879.94;;;22.39;15.23
70902;BME280;58548;47.210;8.618;2023-01-29T09:08:00;94889.09;;;22.88;15.61
70902;BME280;58548;47.210;8.618;2023-01-29T09:10:26;94892.66;;;23.16;15.20
70902;BME280;58548;47.210;8.618;2023-01-29T09:12:54;94892.13;;;23.36;14.57
70902;BME280;58548;47.210;8.618;2023-01-29T09:15:20;94893.38;;;23.28;14.35
70902;BME280;58548;47.210;8.618;2023-01-29T09:17:48;94782.66;;;22.49;14.17
70902;BME280;58548;47.210;8.618;2023-01-29T09:20:17;94888.88;;;22.89;13.82
70902;BME280;58548;47.210;8.618;2023-01-29T09:22:44;94900.22;;;22.63;13.94
70902;BME280;58548;47.210;8.618;2023-01-29T09:25:12;94902.59;;;22.08;13.78
70902;BME280;58548;47.210;8.618;2023-01-29T09:27:38;94883.56;;;21.36;14.03
70902;BME280;58548;47.210;8.618;2023-01-29T09:30:06;94795.31;;;20.11;14.93
70902;BME280;58548;47.210;8.618;2023-01-29T09:32:37;94811.47;;;19.43;15.42
70902;BME280;58548;47.210;8.618;2023-01-29T09:35:05;94891.81;;;19.37;16.27
70902;BME280;58548;47.210;8.618;2023-01-29T09:37:32;94943.53;;;18.65;16.52
70902;BME280;58548;47.210;8.618;2023-01-29T09:39:58;94942.50;;;17.90;17.50
70902;BME280;58548;47.210;8.618;2023-01-29T09:42:39;94830.69;;;16.55;18.36
70902;BME280;58548;47.210;8.618;2023-01-29T09:45:11;94944.66;;;16.70;18.79
70902;BME280;58548;47.210;8.618;2023-01-29T09:47:39;94941.88;;;16.32;19.25
70902;BME280;58548;47.210;8.618;2023-01-29T09:53:09;94930.38;;;15.23;20.95
70902;BME280;58548;47.210;8.618;2023-01-29T09:55:53;94941.63;;;15.04;21.40
70902;BME280;58548;47.210;8.618;2023-01-29T09:58:36;94947.19;;;14.81;21.72
70902;BME280;58548;47.210;8.618;2023-01-29T10:06:31;94957.59;;;13.67;22.99
70902;BME280;58548;47.210;8.618;2023-01-29T10:20:46;94947.81;;;12.72;23.03
70902;BME280;58548;47.210;8.618;2023-01-29T10:23:44;94818.88;;;11.72;24.01
70902;BME280;58548;47.210;8.618;2023-01-29T10:26:12;94929.69;;;12.26;23.72
70902;BME280;58548;47.210;8.618;2023-01-29T10:28:43;94936.53;;;12.27;23.73
70902;BME280;58548;47.210;8.618;2023-01-29T10:31:21;94953.38;;;12.47;23.74
70902;BME280;58548;47.210;8.618;2023-01-29T10:33:55;94950.47;;;12.42;24.18
70902;BME280;58548;47.210;8.618;2023-01-29T10:36:34;94855.84;;;11.92;24.35
70902;BME280;58548;47.210;8.618;2023-01-29T10:39:01;94942.97;;;12.69;23.47
70902;BME280;58548;47.210;8.618;2023-01-29T10:48:24;94955.88;;;12.56;23.58
70902;BME280;58548;47.210;8.618;2023-01-29T10:56:20;94966.88;;;12.36;23.84
70902;BME280;58548;47.210;8.618;2023-01-29T11:01:45;94864.94;;;11.81;23.57
70902;BME280;58548;47.210;8.618;2023-01-29T11:04:13;94863.03;;;11.75;24.00
70902;BME280;58548;47.210;8.618;2023-01-29T11:06:39;94955.13;;;12.32;24.48
70902;BME280;58548;47.210;8.618;2023-01-29T11:11:51;94729.00;;;10.96;24.19
70902;BME280;58548;47.210;8.618;2023-01-29T11:14:29;94936.41;;;12.20;24.12
70902;BME280;58548;47.210;8.618;2023-01-29T11:16:58;94946.78;;;12.13;23.95
70902;BME280;58548;47.210;8.618;2023-01-29T11:19:39;94949.84;;;12.02;24.58
70902;BME280;58548;47.210;8.618;2023-01-29T11:22:13;94937.63;;;11.71;24.57
70902;BME280;58548;47.210;8.618;2023-01-29T11:24:42;94927.16;;;11.71;24.27
70902;BME280;58548;47.210;8.618;2023-01-29T11:27:15;94818.97;;;10.79;25.14
70902;BME280;58548;47.210;8.618;2023-01-29T11:29:49;94924.91;;;11.44;24.61
70902;BME280;58548;47.210;8.618;2023-01-29T11:32:31;94905.56;;;11.54;24.43
70902;BME280;58548;47.210;8.618;2023-01-29T11:35:20;94928.38;;;11.83;24.87
70902;BME280;58548;47.210;8.618;2023-01-29T11:37:47;94795.56;;;11.09;24.57
70902;BME280;58548;47.210;8.618;2023-01-29T11:42:48;94872.06;;;11.87;24.85
70902;BME280;58548;47.210;8.618;2023-01-29T11:45:25;94858.81;;;11.89;24.85
70902;BME280;58548;47.210;8.618;2023-01-29T11:47:54;94916.13;;;12.37;24.94
70902;BME280;58548;47.210;8.618;2023-01-29T11:50:32;94909.91;;;12.53;24.71
70902;BME280;58548;47.210;8.618;2023-01-29T11:52:58;94908.78;;;12.62;24.43
70902;BME280;58548;47.210;8.618;2023-01-29T11:55:29;94907.78;;;12.78;24.20
70902;BME280;58548;47.210;8.618;2023-01-29T11:58:05;94905.88;;;12.87;24.44
70902;BME280;58548;47.210;8.618;2023-01-29T12:00:36;94896.72;;;12.98;24.12
70902;BME280;58548;47.210;8.618;2023-01-29T12:03:21;94842.41;;;12.70;24.27
70902;BME280;58548;47.210;8.618;2023-01-29T12:05:57;94889.63;;;13.13;24.60
70902;BME280;58548;47.210;8.618;2023-01-29T12:08:36;94880.88;;;13.21;23.90
70902;BME280;58548;47.210;8.618;2023-01-29T12:11:13;94757.50;;;12.49;23.83
70902;BME280;58548;47.210;8.618;2023-01-29T12:13:41;94880.09;;;13.27;24.22
70902;BME280;58548;47.210;8.618;2023-01-29T12:19:20;94877.16;;;13.37;23.91
70902;BME280;58548;47.210;8.618;2023-01-29T12:35:26;94874.38;;;13.39;23.15
70902;BME280;58548;47.210;8.618;2023-01-29T12:38:05;94884.69;;;13.40;23.15
70902;BME280;58548;47.210;8.618;2023-01-29T12:41:22;94863.72;;;13.40;23.84
70902;BME280;58548;47.210;8.618;2023-01-29T12:44:10;94875.03;;;13.41;23.35
70902;BME280;58548;47.210;8.618;2023-01-29T12:46:47;94825.97;;;13.20;22.96
70902;BME280;58548;47.210;8.618;2023-01-29T12:49:22;94744.81;;;12.68;23.33
70902;BME280;58548;47.210;8.618;2023-01-29T12:55:04;94732.31;;;12.48;23.76
70902;BME280;58548;47.210;8.618;2023-01-29T12:57:49;94868.81;;;13.27;23.25
70902;BME280;58548;47.210;8.618;2023-01-29T13:00:28;94877.91;;;13.09;23.36
70902;BME280;58548;47.210;8.618;2023-01-29T13:05:55;94868.16;;;13.03;23.87
70902;BME280;58548;47.210;8.618;2023-01-29T13:08:40;94869.34;;;13.01;24.40
70902;BME280;58548;47.210;8.618;2023-01-29T13:11:27;94702.16;;;12.01;23.71
70902;BME280;58548;47.210;8.618;2023-01-29T13:17:08;94841.81;;;12.90;23.91
70902;BME280;58548;47.210;8.618;2023-01-29T13:19:43;94853.69;;;13.07;24.35
70902;BME280;58548;47.210;8.618;2023-01-29T13:24:50;94847.25;;;13.10;23.94
70902;BME280;58548;47.210;8.618;2023-01-29T13:27:29;94646.63;;;11.90;23.85
70902;BME280;58548;47.210;8.618;2023-01-29T13:29:58;94749.88;;;12.55;24.08
70902;BME280;58548;47.210;8.618;2023-01-29T13:32:30;94858.94;;;13.29;23.93
70902;BME280;58548;47.210;8.618;2023-01-29T13:35:01;94754.81;;;12.64;23.81
70902;BME280;58548;47.210;8.618;2023-01-29T13:40:00;94809.69;;;13.03;24.04
70902;BME280;58548;47.210;8.618;2023-01-29T13:42:40;94861.94;;;13.26;24.21
70902;BME280;58548;47.210;8.618;2023-01-29T13:45:23;94835.97;;;13.09;24.24
70902;BME280;58548;47.210;8.618;2023-01-29T13:47:52;94855.81;;;13.19;24.04
70902;BME280;58548;47.210;8.618;2023-01-29T13:53:04;94776.94;;;12.77;24.20
70902;BME280;58548;47.210;8.618;2023-01-29T13:55:35;94736.47;;;12.43;24.20
70902;BME280;58548;47.210;8.618;2023-01-29T13:58:17;94845.44;;;13.10;24.40
70902;BME280;58548;47.210;8.618;2023-01-29T14:01:02;94732.59;;;12.39;23.79
70902;BME280;58548;47.210;8.618;2023-01-29T14:13:38;94757.78;;;12.40;24.30
70902;BME280;58548;47.210;8.618;2023-01-29T14:18:52;94816.44;;;12.75;24.42
70902;BME280;58548;47.210;8.618;2023-01-29T14:21:29;94816.19;;;12.70;24.73
70902;BME280;58548;47.210;8.618;2023-01-29T14:24:31;94824.66;;;12.72;24.96
70902;BME280;58548;47.210;8.618;2023-01-29T14:26:58;94816.56;;;12.67;25.04
70902;BME280;58548;47.210;8.618;2023-01-29T14:29:27;94690.47;;;11.88;25.30
70902;BME280;58548;47.210;8.618;2023-01-29T14:34:29;94820.91;;;12.60;24.83
70902;BME280;58548;47.210;8.618;2023-01-29T14:39:50;94813.53;;;12.48;25.01
70902;BME280;58548;47.210;8.618;2023-01-29T14:52:51;94708.72;;;11.67;25.03
70902;BME280;58548;47.210;8.618;2023-01-29T14:55:47;94799.44;;;12.19;25.28
70902;BME280;58548;47.210;8.618;2023-01-29T15:03:52;94707.91;;;11.36;25.64
70902;BME280;58548;47.210;8.618;2023-01-29T15:06:35;94794.19;;;11.89;25.82
70902;BME280;58548;47.210;8.618;2023-01-29T15:09:16;94775.50;;;11.77;25.46
70902;BME280;58548;47.210;8.618;2023-01-29T15:12:06;94791.84;;;11.65;25.68
70902;BME280;58548;47.210;8.618;2023-01-29T15:14:46;94792.06;;;11.55;25.65
70902;BME280;58548;47.210;8.618;2023-01-29T15:17:29;94792.69;;;11.42;25.92
70902;BME280;58548;47.210;8.618;2023-01-29T15:19:59;94668.50;;;10.46;26.77
70902;BME280;58548;47.210;8.618;2023-01-29T15:22:28;94676.84;;;10.41;26.84
70902;BME280;58548;47.210;8.618;2023-01-29T15:25:06;94786.09;;;11.08;26.54
70902;BME280;58548;47.210;8.618;2023-01-29T15:27:41;94731.50;;;10.66;26.93
70902;BME280;58548;47.210;8.618;2023-01-29T15:30:18;94782.16;;;10.89;26.37
70902;BME280;58548;47.210;8.618;2023-01-29T15:32:46;94770.53;;;10.68;27.25
70902;BME280;58548;47.210;8.618;2023-01-29T15:35:35;94688.13;;;10.02;27.56
70902;BME280;58548;47.210;8.618;2023-01-29T15:38:06;94796.50;;;10.61;27.79
70902;BME280;58548;47.210;8.618;2023-01-29T15:40:33;94774.09;;;10.44;27.85
70902;BME280;58548;47.210;8.618;2023-01-29T15:42:59;94784.88;;;10.40;27.39
70902;BME280;58548;47.210;8.618;2023-01-29T15:45:34;94635.88;;;9.47;27.79
70902;BME280;58548;47.210;8.618;2023-01-29T15:48:12;94719.19;;;9.80;28.57
70902;BME280;58548;47.210;8.618;2023-01-29T15:50:42;94800.97;;;10.13;28.28
70902;BME280;58548;47.210;8.618;2023-01-29T15:53:17;94747.31;;;9.62;28.14
70902;BME280;58548;47.210;8.618;2023-01-29T15:55:47;94800.72;;;9.83;28.12
70902;BME280;58548;47.210;8.618;2023-01-29T15:58:25;94759.41;;;9.46;29.11
70902;BME280;58548;47.210;8.618;2023-01-29T16:00:55;94698.38;;;8.99;28.90
70902;BME280;58548;47.210;8.618;2023-01-29T16:03:25;94800.09;;;9.64;28.45
70902;BME280;58548;47.210;8.618;2023-01-29T16:05:55;94650.22;;;8.62;28.96
70902;BME280;58548;47.210;8.618;2023-01-29T16:08:25;94803.06;;;9.53;28.79
70902;BME280;58548;47.210;8.618;2023-01-29T16:10:58;94787.78;;;9.25;29.55
70902;BME280;58548;47.210;8.618;2023-01-29T16:13:31;94813.97;;;9.23;29.70
70902;BME280;58548;47.210;8.618;2023-01-29T16:16:05;94694.56;;;8.27;29.91
70902;BME280;58548;47.210;8.618;2023-01-29T16:18:45;94811.38;;;8.98;29.83